Time;durP1;ratioP1;P1;durP2;ratioP2;P2;SDS_P1;SDS_P2;PMS_P1;PMS_P2;Temp;Humidity;BMP_temperature;BMP_pressure;BME280_temperature;BME280_humidity;BME280_pressure;Samples;Min_cycle;Max_cycle;Signal;HPM_P1;HPM_P2
2024/01/21 00:01:20;;;;;;;34.55;32.70;;;;;;;2.27;64.16;102257.91;5013684;28;20041;-73
2024/01/21 00:03:45;;;;;;;34.45;32.53;;;;;;;2.27;64.21;102257.03;5037926;28;20489;-74
2024/01/21 00:06:11;;;;;;;31.20;29.50;;;;;;;2.24;64.00;102242.16;5028947;28;20033;-74
2024/01/21 00:08:36;;;;;;;34.80;32.80;;;;;;;2.24;64.22;102241.34;5032796;28;20879;-74
2024/01/21 00:11:02;;;;;;;30.25;28.63;;;;;;;2.22;64.16;102232.66;5014784;28;20430;-74
2024/01/21 00:13:27;;;;;;;36.85;34.83;;;;;;;2.22;63.84;102222.00;5029338;28;20026;-73
2024/01/21 00:15:52;;;;;;;30.67;28.95;;;;;;;2.20;63.89;102219.50;5036445;28;20478;-74
2024/01/21 00:18:18;;;;;;;34.20;32.30;;;;;;;2.20;63.69;102213.31;5021236;28;20463;-76
2024/01/21 00:20:43;;;;;;;33.72;31.83;;;;;;;2.19;63.78;102215.13;5028934;28;20501;-73
2024/01/21 00:23:09;;;;;;;31.15;29.45;;;;;;;2.18;63.90;102210.81;5012032;28;20041;-73
2024/01/21 00:25:35;;;;;;;32.60;30.85;;;;;;;2.17;63.56;102201.97;5019489;28;20515;-73
2024/01/21 00:28:00;;;;;;;31.55;29.85;;;;;;;2.16;63.65;102196.78;5026319;28;20038;-74
2024/01/21 00:30:26;;;;;;;31.02;29.42;;;;;;;2.16;63.69;102200.28;5022606;28;20048;-73
2024/01/21 00:32:52;;;;;;;30.38;28.88;;;;;;;2.17;63.65;102206.47;5026351;28;20072;-72
2024/01/21 00:35:17;;;;;;;29.95;28.40;;;;;;;2.16;63.72;102205.59;5017931;28;20041;-73
2024/01/21 00:37:42;;;;;;;30.38;28.58;;;;;;;2.18;63.28;102208.13;5017898;28;20456;-74
2024/01/21 00:40:08;;;;;;;32.67;30.73;;;;;;;2.19;63.61;102208.97;5021452;28;20038;-73
2024/01/21 00:42:34;;;;;;;27.35;25.95;;;;;;;2.19;63.58;102208.97;5028033;28;20406;-74
2024/01/21 00:45:00;;;;;;;28.88;27.38;;;;;;;2.19;63.29;102203.63;5030728;28;20079;-73
2024/01/21 00:47:25;;;;;;;32.40;30.73;;;;;;;2.19;63.66;102195.63;5030130;28;20117;-73
2024/01/21 00:49:52;;;;;;;33.33;31.45;;;;;;;2.20;63.52;102194.66;5027766;28;20057;-74
2024/01/21 00:52:17;;;;;;;32.25;30.58;;;;;;;2.19;63.73;102196.47;5032193;28;20030;-78
2024/01/21 00:54:43;;;;;;;31.58;29.83;;;;;;;2.21;63.90;102193.66;5013245;28;20095;-73
2024/01/21 00:57:08;;;;;;;30.50;29.00;;;;;;;2.21;63.51;102177.66;5029438;28;20048;-74
2024/01/21 00:59:34;;;;;;;29.98;28.38;;;;;;;2.20;63.69;102168.00;5028123;28;20048;-74
2024/01/21 01:01:59;;;;;;;29.90;28.40;;;;;;;2.20;63.69;102173.34;5022427;28;20449;-74
2024/01/21 01:04:24;;;;;;;28.83;27.23;;;;;;;2.19;63.23;102159.16;5028772;28;20041;-73
2024/01/21 01:06:50;;;;;;;32.58;30.63;;;;;;;2.19;63.55;102160.97;5035159;28;20552;-75
2024/01/21 01:09:15;;;;;;;31.25;29.60;;;;;;;2.19;63.26;102151.16;5028808;28;20045;-75
2024/01/21 01:11:40;;;;;;;33.00;31.20;;;;;;;2.19;63.52;102147.66;5019150;28;20113;-75
2024/01/21 01:14:06;;;;;;;31.70;30.08;;;;;;;2.19;63.62;102137.00;5020461;28;20040;-74
2024/01/21 01:16:38;;;;;;;30.05;28.55;;;;;;;2.18;63.58;102122.81;5016460;28;20482;-73
2024/01/21 01:19:03;;;;;;;31.27;29.67;;;;;;;2.19;63.54;102105.81;5024435;28;20041;-73
2024/01/21 01:21:29;;;;;;;32.00;30.40;;;;;;;2.19;63.38;102100.50;5025570;28;20034;-74
2024/01/21 01:23:54;;;;;;;30.75;28.92;;;;;;;2.19;63.35;102097.00;5017081;28;20045;-74
2024/01/21 01:26:19;;;;;;;29.23;27.63;;;;;;;2.18;63.43;102090.84;5023197;28;20411;-75
2024/01/21 01:28:45;;;;;;;29.50;27.85;;;;;;;2.19;63.71;102097.81;5004147;28;20044;-74
2024/01/21 01:31:16;;;;;;;31.17;29.55;;;;;;;2.19;63.65;102107.66;5025804;28;20030;-74
2024/01/21 01:33:41;;;;;;;31.08;29.27;;;;;;;2.18;63.09;102098.84;5033787;28;20032;-73
2024/01/21 01:36:07;;;;;;;27.35;25.90;;;;;;;2.15;63.19;102096.47;5031600;28;20046;-76
2024/01/21 01:38:32;;;;;;;31.73;30.02;;;;;;;2.14;63.26;102084.13;5016600;28;20047;-73
2024/01/21 01:40:58;;;;;;;29.63;28.00;;;;;;;2.13;63.36;102067.31;5031836;28;20076;-74
2024/01/21 01:43:23;;;;;;;29.02;27.60;;;;;;;2.11;63.39;102057.78;5031161;28;20053;-72
2024/01/21 01:45:48;;;;;;;29.33;27.50;;;;;;;2.10;63.09;102056.13;5016207;28;20107;-74
2024/01/21 01:48:14;;;;;;;31.80;30.00;;;;;;;2.09;63.46;102059.75;5016112;28;20062;-74
2024/01/21 01:50:40;;;;;;;30.98;29.48;;;;;;;2.08;63.37;102047.44;5024763;28;20042;-73
2024/01/21 01:53:06;;;;;;;29.10;27.50;;;;;;;2.09;63.56;102049.09;5041536;28;20037;-75
2024/01/21 01:55:32;;;;;;;31.33;29.65;;;;;;;2.09;63.51;102041.09;5036219;28;20060;-73
2024/01/21 01:57:57;;;;;;;30.85;28.95;;;;;;;2.09;63.33;102055.28;5031469;28;20524;-74
2024/01/21 02:00:23;;;;;;;26.52;25.23;;;;;;;2.09;63.63;102039.31;5029508;28;20041;-74
2024/01/21 02:02:49;;;;;;;31.40;29.60;;;;;;;2.08;63.46;102039.44;5012943;28;20033;-74
2024/01/21 02:05:14;;;;;;;30.70;29.00;;;;;;;2.09;63.47;102043.78;5033088;28;20025;-74
2024/01/21 02:07:40;;;;;;;34.22;32.38;;;;;;;2.07;63.21;102037.78;5033717;28;20505;-73
2024/01/21 02:10:06;;;;;;;27.85;26.38;;;;;;;2.07;63.32;102041.28;5022464;28;20034;-74
2024/01/21 02:12:31;;;;;;;32.00;30.33;;;;;;;2.07;63.42;102041.28;5030798;28;20547;-73
2024/01/21 02:14:56;;;;;;;32.95;30.95;;;;;;;2.08;63.20;102036.78;5036456;28;20033;-74
2024/01/21 02:17:22;;;;;;;32.83;30.95;;;;;;;2.07;63.57;102027.13;5042061;28;20041;-73
2024/01/21 02:19:47;;;;;;;31.63;29.90;;;;;;;2.07;63.42;102027.13;5031327;28;20034;-76
2024/01/21 02:22:13;;;;;;;28.92;27.42;;;;;;;2.07;63.50;102027.97;5021120;28;20041;-74
2024/01/21 02:24:38;;;;;;;30.00;28.30;;;;;;;2.08;63.14;102026.94;5029493;28;20474;-74
2024/01/21 02:27:04;;;;;;;27.15;25.52;;;;;;;2.08;63.19;102007.47;5019616;28;20044;-73
2024/01/21 02:29:29;;;;;;;30.27;28.75;;;;;;;2.08;63.39;101999.47;5032078;28;20454;-75
2024/01/21 02:31:57;;;;;;;33.97;31.50;;;;;;;2.08;63.07;102007.47;5031615;28;20033;-76
2024/01/21 02:34:22;;;;;;;30.48;28.85;;;;;;;2.06;63.33;101988.94;5018549;28;20530;-74
2024/01/21 02:36:48;;;;;;;31.77;30.02;;;;;;;2.07;62.74;101989.81;5031654;28;20087;-75
2024/01/21 02:39:14;;;;;;;29.55;27.83;;;;;;;2.07;62.97;101984.47;5019100;28;20474;-74
2024/01/21 02:41:39;;;;;;;27.73;26.23;;;;;;;2.07;63.14;101998.63;5033369;28;20037;-73
2024/01/21 02:44:04;;;;;;;27.83;26.38;;;;;;;2.07;62.99;101987.16;5021821;28;20159;-75
2024/01/21 02:46:30;;;;;;;28.27;26.80;;;;;;;2.06;63.24;101991.63;5038397;28;20470;-74
2024/01/21 02:48:55;;;;;;;28.48;26.88;;;;;;;2.05;63.08;101981.97;5018664;28;20041;-75
2024/01/21 02:51:21;;;;;;;27.13;25.73;;;;;;;2.05;62.71;101979.28;5014883;28;20045;-74
2024/01/21 02:53:46;;;;;;;32.83;31.10;;;;;;;2.04;63.04;101985.63;5030433;28;20087;-73
2024/01/21 02:56:25;;;;;;;29.75;28.13;;;;;;;2.05;63.23;101986.47;5027472;28;20052;-74
2024/01/21 02:58:51;;;;;;;28.70;26.95;;;;;;;2.05;62.84;101965.97;5015790;28;20139;-74
2024/01/21 03:01:17;;;;;;;29.88;28.20;;;;;;;2.06;62.82;101958.81;5016817;28;20490;-74
2024/01/21 03:03:43;;;;;;;28.50;27.00;;;;;;;2.04;62.95;101961.66;5017178;28;20163;-73
2024/01/21 03:06:08;;;;;;;32.10;30.45;;;;;;;2.04;63.00;101955.44;5030690;28;20109;-75
2024/01/21 03:08:33;;;;;;;32.30;30.58;;;;;;;2.05;63.05;101954.47;5040516;28;20045;-74
2024/01/21 03:10:59;;;;;;;33.78;31.80;;;;;;;2.04;63.14;101953.66;5013911;28;20488;-76
2024/01/21 03:13:24;;;;;;;26.38;24.98;;;;;;;2.04;62.93;101960.78;5031550;28;20112;-73
2024/01/21 03:15:50;;;;;;;28.55;27.00;;;;;;;2.05;62.90;101955.31;5027059;28;20507;-74
2024/01/21 03:18:15;;;;;;;32.88;31.08;;;;;;;2.04;63.06;101944.78;5020139;28;20096;-73
2024/01/21 03:20:40;;;;;;;31.48;29.70;;;;;;;2.04;63.00;101940.31;5020751;28;20151;-75
2024/01/21 03:23:06;;;;;;;32.15;30.38;;;;;;;2.04;63.20;101934.13;5019781;28;20026;-73
2024/01/21 03:25:31;;;;;;;30.42;28.83;;;;;;;2.04;62.82;101937.66;5029434;28;20049;-73
2024/01/21 03:27:56;;;;;;;32.58;30.58;;;;;;;2.04;63.10;101942.13;5031492;28;20037;-74
2024/01/21 03:30:22;;;;;;;28.63;27.15;;;;;;;2.04;62.96;101940.31;5030981;28;20040;-73
2024/01/21 03:32:47;;;;;;;29.35;27.85;;;;;;;2.04;63.06;101934.13;5030410;28;20547;-72
2024/01/21 03:35:13;;;;;;;31.80;30.20;;;;;;;2.04;62.99;101940.31;5026901;28;20038;-75
2024/01/21 03:37:38;;;;;;;33.58;31.45;;;;;;;2.05;62.99;101936.66;5033566;28;20029;-74
2024/01/21 03:40:05;;;;;;;31.13;29.38;;;;;;;2.05;62.73;101930.50;5034445;28;20033;-74
2024/01/21 03:42:30;;;;;;;32.30;30.50;;;;;;;2.06;62.95;101924.16;5031036;28;20033;-76
2024/01/21 03:44:56;;;;;;;33.70;31.77;;;;;;;2.05;62.92;101923.31;5027705;28;20374;-73
2024/01/21 03:47:21;;;;;;;32.08;30.30;;;;;;;2.05;62.90;101918.00;5023434;28;20390;-73
2024/01/21 03:49:47;;;;;;;30.15;28.58;;;;;;;2.05;62.86;101903.84;5031655;28;20076;-74
2024/01/21 03:52:12;;;;;;;32.25;30.23;;;;;;;2.05;63.09;101922.50;5026740;28;20071;-73
2024/01/21 03:54:37;;;;;;;30.08;28.48;;;;;;;2.03;63.27;101911.97;5029826;28;20428;-74
2024/01/21 03:57:03;;;;;;;31.40;29.48;;;;;;;2.05;63.18;101912.66;5020368;28;20049;-73
2024/01/21 03:59:28;;;;;;;29.70;28.05;;;;;;;2.04;62.89;101905.69;5013582;28;20049;-74
2024/01/21 04:01:54;;;;;;;30.23;28.27;;;;;;;2.05;62.77;101910.00;5016754;28;20044;-73
2024/01/21 04:04:19;;;;;;;32.20;30.60;;;;;;;2.06;62.81;101913.50;5024085;28;20048;-72
2024/01/21 04:06:44;;;;;;;27.98;26.23;;;;;;;2.04;62.62;101919.00;5031404;28;20041;-74
2024/01/21 04:09:12;;;;;;;32.42;30.45;;;;;;;2.02;62.89;101920.97;5018098;28;20037;-73
2024/01/21 04:11:37;;;;;;;31.02;29.35;;;;;;;2.05;63.23;101918.00;5017635;28;20513;-73
2024/01/21 04:14:03;;;;;;;32.13;30.30;;;;;;;2.05;63.25;101910.00;5022760;28;20041;-73
2024/01/21 04:16:28;;;;;;;29.70;28.15;;;;;;;2.04;62.97;101900.34;5022906;28;20036;-74
2024/01/21 04:18:54;;;;;;;32.25;29.13;;;;;;;2.04;62.76;101883.50;5028545;28;20064;-75
2024/01/21 04:21:19;;;;;;;31.05;29.30;;;;;;;2.04;63.35;101883.50;5029797;28;20025;-74
2024/01/21 04:23:45;;;;;;;33.65;31.95;;;;;;;2.04;62.78;101873.69;5025103;28;20045;-74
2024/01/21 04:26:10;;;;;;;33.33;31.33;;;;;;;2.03;63.00;101852.53;5029453;28;20045;-74
2024/01/21 04:28:39;;;;;;;34.25;32.35;;;;;;;2.05;62.44;101834.53;5021009;28;20168;-74
2024/01/21 04:31:05;;;;;;;30.60;28.77;;;;;;;2.04;63.00;101833.72;5009838;28;20049;-73
2024/01/21 04:33:31;;;;;;;32.75;31.08;;;;;;;2.02;62.83;101822.38;5023316;28;20034;-73
2024/01/21 04:35:56;;;;;;;32.45;30.63;;;;;;;2.03;62.37;101831.19;5023792;28;20167;-78
2024/01/21 04:38:23;;;;;;;32.85;31.05;;;;;;;2.02;62.96;101813.56;5023045;28;20026;-73
2024/01/21 04:40:49;;;;;;;30.02;28.42;;;;;;;2.02;62.92;101816.22;5017963;28;20040;-73
2024/01/21 04:43:15;;;;;;;30.13;28.27;;;;;;;2.02;62.92;101814.38;5012912;28;20030;-73
2024/01/21 04:45:40;;;;;;;30.05;28.52;;;;;;;2.03;63.11;101813.38;5031472;28;20212;-74
2024/01/21 04:48:06;;;;;;;32.20;30.25;;;;;;;2.03;62.83;101802.72;5030856;28;20025;-73
2024/01/21 04:50:31;;;;;;;33.50;31.52;;;;;;;2.03;62.76;101794.72;5027972;28;20041;-73
2024/01/21 04:52:57;;;;;;;31.85;29.95;;;;;;;2.02;62.79;101785.06;5032887;28;20413;-75
2024/01/21 04:55:22;;;;;;;33.58;31.65;;;;;;;2.01;62.88;101804.69;5012394;28;20091;-74
2024/01/21 04:57:47;;;;;;;32.05;30.27;;;;;;;2.01;62.90;101788.72;5013280;28;20092;-74
2024/01/21 05:00:13;;;;;;;30.35;28.45;;;;;;;2.03;63.28;101799.22;5021227;28;20497;-74
2024/01/21 05:02:39;;;;;;;28.42;26.67;;;;;;;2.01;63.15;101796.72;5039065;28;20092;-75
2024/01/21 05:05:04;;;;;;;35.80;33.53;;;;;;;2.02;63.10;101793.06;5016198;28;20139;-72
2024/01/21 05:07:30;;;;;;;27.40;25.45;;;;;;;2.01;63.06;101796.72;5023461;28;20030;-73
2024/01/21 05:09:56;;;;;;;33.13;31.45;;;;;;;2.01;63.33;101818.03;5029103;28;20105;-74
2024/01/21 05:12:21;;;;;;;31.38;29.70;;;;;;;2.02;62.92;101802.91;5020198;28;20140;-73
2024/01/21 05:14:47;;;;;;;31.67;29.98;;;;;;;2.00;63.10;101805.72;4995952;28;20049;-74
2024/01/21 05:17:12;;;;;;;34.25;32.13;;;;;;;2.02;62.91;101798.41;5030353;28;20029;-72
2024/01/21 05:19:38;;;;;;;29.40;27.45;;;;;;;2.02;63.16;101795.72;5031054;28;20103;-72
2024/01/21 05:22:03;;;;;;;33.20;31.38;;;;;;;2.04;63.01;101816.88;5028295;28;20442;-73
2024/01/21 05:24:29;;;;;;;30.80;29.25;;;;;;;2.05;63.13;101813.22;5029025;28;20420;-73
2024/01/21 05:26:54;;;;;;;31.98;30.27;;;;;;;2.06;62.71;101823.72;5016227;28;20040;-74
2024/01/21 05:29:19;;;;;;;35.70;33.30;;;;;;;2.05;63.19;101821.22;5011576;28;20048;-73
2024/01/21 05:31:45;;;;;;;33.85;31.92;;;;;;;2.06;63.13;101820.22;5029432;28;20490;-75
2024/01/21 05:34:11;;;;;;;32.13;29.75;;;;;;;2.06;62.81;101807.72;5028281;28;20135;-73
2024/01/21 05:36:36;;;;;;;30.40;28.83;;;;;;;2.07;62.86;101785.41;5024250;28;20045;-75
2024/01/21 05:39:03;;;;;;;29.52;27.88;;;;;;;2.07;62.96;101774.75;5029329;28;20057;-77
2024/01/21 05:41:29;;;;;;;27.52;25.85;;;;;;;2.07;62.79;101773.94;5028032;28;20064;-73
2024/01/21 05:43:55;;;;;;;32.78;30.90;;;;;;;2.07;62.80;101771.28;5029143;28;20037;-73
2024/01/21 05:46:20;;;;;;;31.05;29.23;;;;;;;2.07;62.76;101771.28;5021663;28;20034;-74
2024/01/21 05:48:45;;;;;;;31.15;29.58;;;;;;;2.08;62.86;101764.94;5015597;28;20446;-75
2024/01/21 05:51:11;;;;;;;32.63;30.67;;;;;;;2.09;62.78;101755.94;5028223;28;20073;-75
2024/01/21 05:53:39;;;;;;;28.50;27.00;;;;;;;2.08;63.03;101776.41;5027902;28;20036;-72
2024/01/21 05:56:05;;;;;;;34.90;32.50;;;;;;;2.08;62.65;101779.09;5042637;28;20391;-75
2024/01/21 05:58:30;;;;;;;31.45;29.77;;;;;;;2.07;62.60;101777.44;5023679;28;20033;-74
2024/01/21 06:00:55;;;;;;;28.85;27.35;;;;;;;2.08;62.95;101773.75;5028636;28;20489;-75
2024/01/21 06:03:21;;;;;;;33.70;31.67;;;;;;;2.09;63.01;101769.25;5025442;28;20030;-73
2024/01/21 06:05:46;;;;;;;31.83;30.23;;;;;;;2.09;63.09;101772.78;5041934;28;20436;-73
2024/01/21 06:08:12;;;;;;;32.85;31.05;;;;;;;2.10;63.02;101781.59;5014087;28;20030;-72
2024/01/21 06:10:37;;;;;;;32.75;30.98;;;;;;;2.10;63.12;101808.25;5000681;28;20775;-74
2024/01/21 06:13:02;;;;;;;30.25;28.75;;;;;;;2.10;62.72;101802.91;5030362;28;20156;-72
2024/01/21 06:15:28;;;;;;;30.15;28.63;;;;;;;2.11;62.82;101788.59;5018779;28;20049;-73
2024/01/21 06:17:53;;;;;;;31.60;29.80;;;;;;;2.09;62.61;101788.75;5013352;28;20110;-74
2024/01/21 06:20:19;;;;;;;31.45;29.65;;;;;;;2.10;62.94;101790.41;5025952;28;20029;-73
2024/01/21 06:22:44;;;;;;;33.08;30.90;;;;;;;2.10;62.64;101800.25;5031552;28;20041;-73
2024/01/21 06:25:11;;;;;;;37.15;34.78;;;;;;;2.10;62.56;101803.75;5031943;28;20100;-74
2024/01/21 06:27:37;;;;;;;28.70;27.27;;;;;;;2.09;62.88;101807.44;5032148;28;20112;-72
2024/01/21 06:30:16;;;;;;;31.63;30.00;;;;;;;2.11;62.64;101826.72;5030190;28;20666;-73
2024/01/21 06:32:42;;;;;;;28.88;27.23;;;;;;;2.11;62.99;101809.91;5032611;28;20029;-73
2024/01/21 06:35:07;;;;;;;35.80;34.00;;;;;;;2.11;62.64;101805.41;5018810;28;20093;-72
2024/01/21 06:37:33;;;;;;;31.95;30.15;;;;;;;2.12;63.00;101804.44;5026216;28;20382;-72
2024/01/21 06:39:58;;;;;;;30.70;29.00;;;;;;;2.13;62.45;101823.91;5012493;28;20099;-76
2024/01/21 06:42:23;;;;;;;33.45;31.20;;;;;;;2.12;62.89;101812.44;5015865;28;20386;-73
2024/01/21 06:44:49;;;;;;;32.22;30.23;;;;;;;2.12;62.80;101799.09;4991658;28;20071;-74
2024/01/21 06:47:14;;;;;;;32.88;30.88;;;;;;;2.12;62.45;101812.44;5032745;28;20378;-72
2024/01/21 06:49:39;;;;;;;28.98;27.38;;;;;;;2.12;62.81;101817.75;5021675;28;20105;-75
2024/01/21 06:52:07;;;;;;;31.48;29.88;;;;;;;2.12;62.92;101796.44;5035749;28;20029;-73
2024/01/21 06:54:35;;;;;;;31.83;29.98;;;;;;;2.11;62.58;101801.91;5026650;28;20056;-73
2024/01/21 06:57:01;;;;;;;32.88;30.77;;;;;;;2.08;62.53;101768.41;5030890;28;20056;-73
2024/01/21 06:59:26;;;;;;;30.33;28.52;;;;;;;2.08;62.82;101760.44;5028693;28;20050;-73
2024/01/21 07:01:52;;;;;;;32.08;30.42;;;;;;;2.09;62.75;101750.59;5030353;28;20033;-72
2024/01/21 07:04:18;;;;;;;34.90;32.95;;;;;;;2.09;62.37;101751.47;5028636;28;20422;-72
2024/01/21 07:06:44;;;;;;;28.98;27.38;;;;;;;2.12;62.52;101744.97;5031097;28;20055;-74
2024/01/21 07:09:10;;;;;;;29.73;27.95;;;;;;;2.13;62.31;101750.13;5014950;28;20038;-72
2024/01/21 07:11:40;;;;;;;33.65;31.88;;;;;;;2.12;62.44;101750.28;5032508;28;20261;-73
2024/01/21 07:14:05;;;;;;;26.48;25.17;;;;;;;2.11;62.56;101754.75;5018087;28;20347;-71
2024/01/21 07:16:31;;;;;;;31.40;29.63;;;;;;;2.14;62.56;101748.28;5028375;28;20038;-72
2024/01/21 07:18:56;;;;;;;31.40;29.80;;;;;;;2.14;62.41;101733.16;5023749;28;20159;-72
2024/01/21 07:21:22;;;;;;;31.80;29.98;;;;;;;2.14;62.69;101725.16;5030981;28;20087;-72
2024/01/21 07:23:48;;;;;;;33.72;31.92;;;;;;;2.15;62.52;101733.97;5015155;28;20077;-76
2024/01/21 07:26:13;;;;;;;33.00;31.20;;;;;;;2.14;62.16;101727.81;5030505;28;20037;-78
2024/01/21 07:28:39;;;;;;;31.60;29.95;;;;;;;2.13;62.53;101747.44;5028376;28;20095;-74
2024/01/21 07:31:04;;;;;;;31.15;29.55;;;;;;;2.15;62.41;101760.63;5012555;28;20057;-73
2024/01/21 07:33:29;;;;;;;35.08;33.00;;;;;;;2.14;62.32;101765.13;5029249;28;20463;-73
2024/01/21 07:35:55;;;;;;;34.85;32.85;;;;;;;2.15;62.33;101768.63;5012525;28;20030;-74
2024/01/21 07:38:21;;;;;;;36.28;33.92;;;;;;;2.14;62.49;101775.78;5022925;28;20048;-72
2024/01/21 07:40:47;;;;;;;31.70;30.00;;;;;;;2.14;62.53;101797.13;5027647;28;20041;-75
2024/01/21 07:43:13;;;;;;;31.67;30.02;;;;;;;2.14;62.62;101791.78;5028756;28;20041;-71
2024/01/21 07:45:38;;;;;;;33.97;32.28;;;;;;;2.16;62.61;101796.94;5027297;28;20048;-73
2024/01/21 07:48:04;;;;;;;29.67;28.17;;;;;;;2.16;62.55;101811.09;5032237;28;20339;-72
2024/01/21 07:50:30;;;;;;;31.60;29.80;;;;;;;2.18;62.45;101808.28;5014037;28;20144;-73
2024/01/21 07:52:55;;;;;;;35.08;33.03;;;;;;;2.18;62.55;101808.28;5014968;28;20025;-71
2024/01/21 07:55:21;;;;;;;33.47;31.23;;;;;;;2.19;62.60;101822.44;5029931;28;20134;-71
2024/01/21 07:57:47;;;;;;;32.65;30.92;;;;;;;2.19;62.14;101841.09;5010980;28;20108;-73
2024/01/21 08:00:13;;;;;;;32.60;30.88;;;;;;;2.19;62.47;101841.09;5011313;28;20038;-73
2024/01/21 08:02:39;;;;;;;31.45;29.77;;;;;;;2.20;62.45;101842.78;5011943;28;20041;-72
2024/01/21 08:05:05;;;;;;;31.58;29.77;;;;;;;2.20;62.18;101845.44;5020245;28;20398;-72
2024/01/21 08:07:30;;;;;;;31.95;30.15;;;;;;;2.19;62.38;101838.41;5023161;28;20037;-72
2024/01/21 08:09:56;;;;;;;26.73;25.33;;;;;;;2.19;62.38;101838.41;5036916;28;20057;-72
2024/01/21 08:12:22;;;;;;;29.75;28.00;;;;;;;2.20;62.51;101837.44;5029806;28;20128;-72
2024/01/21 08:14:47;;;;;;;32.72;30.92;;;;;;;2.19;62.18;101831.25;5019350;28;20129;-72
2024/01/21 08:17:13;;;;;;;30.48;28.88;;;;;;;2.20;62.04;101848.09;5018046;28;20111;-72
2024/01/21 08:19:39;;;;;;;35.03;33.03;;;;;;;2.21;62.54;101836.44;5029670;28;20557;-73
2024/01/21 08:22:04;;;;;;;31.55;29.75;;;;;;;2.18;62.28;101829.59;5030643;28;20072;-72
2024/01/21 08:24:30;;;;;;;36.05;33.72;;;;;;;2.16;62.42;101816.41;5030281;28;20045;-72
2024/01/21 08:26:57;;;;;;;34.22;32.35;;;;;;;2.16;62.31;101804.94;5026861;28;20158;-72
2024/01/21 08:29:23;;;;;;;31.70;29.65;;;;;;;2.19;62.51;101806.44;5013112;28;20048;-74
2024/01/21 08:31:48;;;;;;;33.83;31.83;;;;;;;2.18;62.08;101792.28;5029677;28;20029;-73
2024/01/21 08:34:13;;;;;;;30.15;28.42;;;;;;;2.16;62.43;101800.44;5029878;28;20348;-71
2024/01/21 08:36:39;;;;;;;29.13;27.45;;;;;;;2.15;62.11;101804.09;5041498;28;20546;-72
2024/01/21 08:39:09;;;;;;;33.40;31.65;;;;;;;2.15;62.33;101814.75;5034632;28;20041;-72
2024/01/21 08:41:35;;;;;;;36.95;34.42;;;;;;;2.15;62.23;101813.94;5025425;28;20088;-72
2024/01/21 08:44:02;;;;;;;31.60;29.65;;;;;;;2.15;62.18;101812.09;5024462;28;20101;-73
2024/01/21 08:46:28;;;;;;;34.25;31.95;;;;;;;2.15;62.30;101821.94;5034090;28;20044;-72
2024/01/21 08:48:53;;;;;;;29.20;27.48;;;;;;;2.16;62.31;101826.25;5032619;28;20033;-72
2024/01/21 08:51:19;;;;;;;33.95;31.95;;;;;;;2.16;62.51;101820.91;5025013;28;20096;-71
2024/01/21 08:53:44;;;;;;;30.40;28.70;;;;;;;2.18;62.54;101826.94;5018810;28;20144;-73
2024/01/21 08:56:10;;;;;;;31.55;29.33;;;;;;;2.20;62.64;101830.28;5023100;28;20061;-72
2024/01/21 08:58:35;;;;;;;35.97;33.70;;;;;;;2.21;62.38;101839.09;5022111;28;20471;-73
2024/01/21 09:01:01;;;;;;;33.47;31.27;;;;;;;2.23;62.42;101847.78;5029164;28;20080;-71
2024/01/21 09:03:26;;;;;;;37.03;34.50;;;;;;;2.23;62.40;101859.28;5028804;28;20022;-72
2024/01/21 09:05:52;;;;;;;31.83;29.92;;;;;;;2.25;62.42;101861.78;5014790;28;20470;-72
2024/01/21 09:08:17;;;;;;;31.75;29.98;;;;;;;2.24;62.61;101863.59;4997479;28;20060;-72
2024/01/21 09:10:43;;;;;;;27.70;26.17;;;;;;;2.25;62.51;101864.47;5022234;28;20453;-72
2024/01/21 09:13:09;;;;;;;33.10;31.25;;;;;;;2.28;63.01;101864.97;5028370;28;20441;-72
2024/01/21 09:15:35;;;;;;;31.85;29.55;;;;;;;2.29;62.71;101866.66;5024258;28;20049;-75
2024/01/21 09:18:00;;;;;;;32.97;31.27;;;;;;;2.31;62.51;101877.97;5017029;28;20029;-71
2024/01/21 09:20:25;;;;;;;31.45;29.65;;;;;;;2.34;62.76;101875.00;5010875;28;20041;-73
2024/01/21 09:22:51;;;;;;;32.75;30.95;;;;;;;2.35;62.72;101867.84;5021377;28;20116;-70
2024/01/21 09:25:16;;;;;;;33.05;31.02;;;;;;;2.35;63.00;101890.00;5027349;28;20025;-72
2024/01/21 09:27:42;;;;;;;34.35;32.22;;;;;;;2.35;62.69;101884.66;5022727;28;20061;-73
2024/01/21 09:30:09;;;;;;;33.38;31.40;;;;;;;2.37;62.84;101881.84;5020113;28;20442;-72
2024/01/21 09:32:34;;;;;;;32.88;31.05;;;;;;;2.38;62.76;101894.16;5014504;28;20038;-72
2024/01/21 09:35:00;;;;;;;33.88;31.90;;;;;;;2.38;62.80;101899.50;5022844;28;20044;-72
2024/01/21 09:37:26;;;;;;;34.55;32.55;;;;;;;2.40;62.92;101902.03;5024638;28;20033;-70
2024/01/21 09:39:51;;;;;;;30.13;28.52;;;;;;;2.39;62.85;101901.16;5028524;28;20623;-71
2024/01/21 09:42:17;;;;;;;31.45;29.65;;;;;;;2.40;62.69;101910.84;5032992;28;20075;-73
2024/01/21 09:44:43;;;;;;;34.42;32.15;;;;;;;2.39;62.59;101914.50;5032575;28;20111;-72
2024/01/21 09:47:10;;;;;;;34.00;32.17;;;;;;;2.41;62.69;101917.00;5029892;28;20084;-72
2024/01/21 09:49:37;;;;;;;34.30;32.38;;;;;;;2.42;62.91;101914.19;5033265;28;20036;-71
2024/01/21 09:52:04;;;;;;;33.22;31.30;;;;;;;2.43;62.96;101905.19;5021363;28;20029;-74
2024/01/21 09:54:29;;;;;;;37.83;35.65;;;;;;;2.44;62.69;101908.69;5016516;28;20034;-73
2024/01/21 09:56:55;;;;;;;30.67;29.08;;;;;;;2.40;62.73;101884.19;5029136;28;20042;-71
2024/01/21 09:59:21;;;;;;;31.08;29.30;;;;;;;2.41;63.20;101890.34;5034236;28;20389;-72
2024/01/21 10:01:47;;;;;;;34.97;32.92;;;;;;;2.41;63.12;101877.84;5027774;28;20483;-72
2024/01/21 10:04:14;;;;;;;34.17;32.30;;;;;;;2.42;63.13;101882.19;5030723;28;20037;-72
2024/01/21 10:06:40;;;;;;;34.15;32.00;;;;;;;2.43;63.08;101878.53;5026478;28;20034;-73
2024/01/21 10:09:20;;;;;;;32.00;30.38;;;;;;;2.45;63.04;101873.88;5017472;28;20034;-72
2024/01/21 10:11:56;;;;;;;33.17;31.13;;;;;;;2.48;63.35;101870.88;5026017;28;20134;-72
2024/01/21 10:14:24;;;;;;;32.60;30.63;;;;;;;2.50;63.19;101860.06;5027875;28;20213;-72
2024/01/21 10:16:50;;;;;;;35.58;33.53;;;;;;;2.51;63.23;101872.38;5029087;28;20038;-73
2024/01/21 10:19:24;;;;;;;40.95;38.63;;;;;;;2.49;63.02;101869.84;5025112;28;20037;-73
2024/01/21 10:21:49;;;;;;;33.28;31.23;;;;;;;2.47;63.48;101874.53;5044888;28;20410;-72
2024/01/21 10:24:21;;;;;;;32.35;30.58;;;;;;;2.48;63.23;101870.88;5020639;28;20072;-73
2024/01/21 10:26:47;;;;;;;35.47;33.42;;;;;;;2.47;63.66;101874.53;5026597;28;20083;-72
2024/01/21 10:29:13;;;;;;;33.67;31.77;;;;;;;2.48;63.70;101870.03;5029126;28;20059;-75
2024/01/21 10:31:38;;;;;;;35.70;33.72;;;;;;;2.47;63.72;101863.88;5025715;28;20037;-73
2024/01/21 10:34:03;;;;;;;29.73;28.13;;;;;;;2.48;63.70;101860.19;5034168;28;20034;-72
2024/01/21 10:36:33;;;;;;;28.83;27.23;;;;;;;2.51;63.57;101851.03;5026234;28;20068;-71
2024/01/21 10:39:02;;;;;;;30.10;27.88;;;;;;;2.52;63.56;101850.88;5030328;28;20029;-75
2024/01/21 10:41:31;;;;;;;32.70;30.63;;;;;;;2.53;63.61;101841.88;5030933;28;20033;-74
2024/01/21 10:43:57;;;;;;;33.53;31.77;;;;;;;2.54;63.64;101834.72;5029674;28;20036;-73
2024/01/21 10:46:26;;;;;;;32.08;30.25;;;;;;;2.53;63.79;101833.03;5029639;28;20052;-73
2024/01/21 10:48:55;;;;;;;38.13;35.78;;;;;;;2.53;63.90;101828.53;5029154;28;20040;-73
2024/01/21 10:51:22;;;;;;;32.63;30.83;;;;;;;2.56;63.91;101822.03;5030276;28;20021;-74
2024/01/21 10:53:50;;;;;;;33.83;31.63;;;;;;;2.57;63.80;101824.56;5030370;28;20488;-72
2024/01/21 10:56:16;;;;;;;35.35;33.42;;;;;;;2.59;64.00;101841.22;5011527;28;20518;-72
2024/01/21 10:58:42;;;;;;;35.22;33.13;;;;;;;2.59;63.80;101843.06;5011783;28;20069;-72
2024/01/21 11:01:10;;;;;;;31.73;29.95;;;;;;;2.57;64.19;101837.91;5026980;28;20409;-74
2024/01/21 11:03:36;;;;;;;35.03;32.83;;;;;;;2.56;64.08;101846.88;5030536;28;20037;-73
2024/01/21 11:06:06;;;;;;;32.05;30.15;;;;;;;2.56;64.15;101848.72;5045434;28;20381;-73
2024/01/21 11:08:32;;;;;;;35.13;33.22;;;;;;;2.56;64.11;101851.38;5012085;28;20022;-72
2024/01/21 11:11:02;;;;;;;34.92;32.95;;;;;;;2.56;64.28;101862.06;5026657;28;20390;-72